Thomson, Illinois
Current Conditions -  °F | °C
As of 7:35 AM on Sunday 21 Dec 2014 (Local Time) from KSFY Reporting Station
Haze Haze  
Wind Chill: 27°   Ceiling: 900
Heat Index: 35°   Visibility: 5mi
Dew Point: 32°   Wind: 9mph
Humidity: 91%   Direction: 180°S
Pressure: 30.13"   Gusts: NA
Location:  41.96°N, 90.1°W
Report Text: KSFY 211335Z AUTO 18008KT 5SM BR OVC009 02/00 A3013 RMK AO2 T00150002
Loading
Personal Weather Stations






























Interactive Weather Map New forecast layout! Learn more

10-Day Weather Forecast

Advertisements
Track Severe Weather on mobile